sensor_id;sensor_type;location;lat;lon;timestamp;pressure;altitude;pressure_sealevel;temperature;humidity
40490;BME280;26196;52.302;10.572;2023-12-20T00:00:30;100085.91;;;12.08;58.26
40490;BME280;26196;52.302;10.572;2023-12-20T00:04:30;100158.63;;;12.48;58.98
40490;BME280;26196;52.302;10.572;2023-12-20T00:08:30;100080.53;;;12.11;58.55
40490;BME280;26196;52.302;10.572;2023-12-20T00:12:32;100140.25;;;12.48;58.99
40490;BME280;26196;52.302;10.572;2023-12-20T00:16:32;100130.00;;;12.42;58.76
40490;BME280;26196;52.302;10.572;2023-12-20T00:20:32;100147.94;;;12.53;58.72
40490;BME280;26196;52.302;10.572;2023-12-20T00:24:32;100069.25;;;12.09;58.25
40490;BME280;26196;52.302;10.572;2023-12-20T00:28:33;100099.94;;;12.07;58.46
40490;BME280;26196;52.302;10.572;2023-12-20T00:32:34;100087.19;;;11.98;57.71
40490;BME280;26196;52.302;10.572;2023-12-20T00:36:35;100163.53;;;12.36;58.06
40490;BME280;26196;52.302;10.572;2023-12-20T00:40:35;100161.81;;;12.35;58.37
40490;BME280;26196;52.302;10.572;2023-12-20T00:44:36;100108.13;;;11.99;57.94
40490;BME280;26196;52.302;10.572;2023-12-20T00:48:36;100150.81;;;12.25;57.91
40490;BME280;26196;52.302;10.572;2023-12-20T00:52:36;100122.97;;;11.99;57.87
40490;BME280;26196;52.302;10.572;2023-12-20T00:56:37;100148.41;;;12.20;58.02
40490;BME280;26196;52.302;10.572;2023-12-20T01:00:38;100170.72;;;12.31;57.69
40490;BME280;26196;52.302;10.572;2023-12-20T01:04:39;100183.06;;;12.29;58.21
40490;BME280;26196;52.302;10.572;2023-12-20T01:08:39;100119.88;;;11.89;58.00
40490;BME280;26196;52.302;10.572;2023-12-20T01:12:39;100120.50;;;11.96;57.58
40490;BME280;26196;52.302;10.572;2023-12-20T01:16:40;100174.34;;;12.28;57.07
40490;BME280;26196;52.302;10.572;2023-12-20T01:20:40;100099.91;;;11.85;57.05
40490;BME280;26196;52.302;10.572;2023-12-20T01:24:40;100089.41;;;11.85;56.88
40490;BME280;26196;52.302;10.572;2023-12-20T01:28:41;100094.66;;;11.85;57.43
40490;BME280;26196;52.302;10.572;2023-12-20T01:32:41;100167.66;;;12.19;57.26
40490;BME280;26196;52.302;10.572;2023-12-20T01:36:42;100166.09;;;12.15;57.48
40490;BME280;26196;52.302;10.572;2023-12-20T01:40:42;100111.53;;;11.78;57.48
40490;BME280;26196;52.302;10.572;2023-12-20T01:44:43;100154.97;;;12.09;56.83
40490;BME280;26196;52.302;10.572;2023-12-20T01:48:43;100161.88;;;12.11;57.04
40490;BME280;26196;52.302;10.572;2023-12-20T01:52:44;100111.53;;;11.78;56.71
40490;BME280;26196;52.302;10.572;2023-12-20T01:56:45;100162.16;;;12.03;56.82
40490;BME280;26196;52.302;10.572;2023-12-20T02:00:46;100167.91;;;12.13;56.65
40490;BME280;26196;52.302;10.572;2023-12-20T02:04:46;100098.91;;;11.66;57.09
40490;BME280;26196;52.302;10.572;2023-12-20T02:08:49;100128.13;;;11.78;56.87
40490;BME280;26196;52.302;10.572;2023-12-20T02:12:50;100118.91;;;11.68;56.89
40490;BME280;26196;52.302;10.572;2023-12-20T02:16:50;100113.75;;;11.65;56.53
40490;BME280;26196;52.302;10.572;2023-12-20T02:20:50;100177.78;;;12.07;56.65
40490;BME280;26196;52.302;10.572;2023-12-20T02:24:51;100169.44;;;11.97;56.69
40490;BME280;26196;52.302;10.572;2023-12-20T02:28:51;100184.13;;;12.01;56.40
40490;BME280;26196;52.302;10.572;2023-12-20T02:32:52;100119.25;;;11.59;55.26
40490;BME280;26196;52.302;10.572;2023-12-20T02:36:52;100108.38;;;11.46;56.41
40490;BME280;26196;52.302;10.572;2023-12-20T02:40:53;100178.31;;;11.93;55.75
40490;BME280;26196;52.302;10.572;2023-12-20T02:44:53;100161.91;;;11.88;55.68
40490;BME280;26196;52.302;10.572;2023-12-20T02:48:53;100075.38;;;11.41;56.23
40490;BME280;26196;52.302;10.572;2023-12-20T02:52:54;100108.06;;;11.54;56.44
40490;BME280;26196;52.302;10.572;2023-12-20T02:56:54;100095.81;;;11.54;56.04
40490;BME280;26196;52.302;10.572;2023-12-20T03:00:55;100131.94;;;11.70;56.31
40490;BME280;26196;52.302;10.572;2023-12-20T03:04:55;100144.75;;;11.77;55.89
40490;BME280;26196;52.302;10.572;2023-12-20T03:08:55;100151.63;;;11.81;56.41
40490;BME280;26196;52.302;10.572;2023-12-20T03:12:56;100153.09;;;11.89;56.31
40490;BME280;26196;52.302;10.572;2023-12-20T03:16:56;100150.56;;;11.87;56.30
40490;BME280;26196;52.302;10.572;2023-12-20T03:20:56;100087.06;;;11.55;55.84
40490;BME280;26196;52.302;10.572;2023-12-20T03:24:56;100105.22;;;11.60;56.07
40490;BME280;26196;52.302;10.572;2023-12-20T03:28:57;100130.75;;;11.78;55.83
40490;BME280;26196;52.302;10.572;2023-12-20T03:32:57;100136.69;;;11.83;56.01
40490;BME280;26196;52.302;10.572;2023-12-20T03:36:57;100069.34;;;11.38;55.74
40490;BME280;26196;52.302;10.572;2023-12-20T03:40:58;100111.94;;;11.67;55.55
40490;BME280;26196;52.302;10.572;2023-12-20T03:44:58;100044.75;;;11.43;55.61
40490;BME280;26196;52.302;10.572;2023-12-20T03:48:58;100055.81;;;11.49;55.64
40490;BME280;26196;52.302;10.572;2023-12-20T03:52:59;100035.34;;;11.37;55.17
40490;BME280;26196;52.302;10.572;2023-12-20T03:56:59;100043.88;;;11.42;54.98
40490;BME280;26196;52.302;10.572;2023-12-20T04:00:59;100100.56;;;11.68;55.21
40490;BME280;26196;52.302;10.572;2023-12-20T04:05:00;100039.03;;;11.31;55.32
40490;BME280;26196;52.302;10.572;2023-12-20T04:09:00;100109.31;;;11.67;54.95
40490;BME280;26196;52.302;10.572;2023-12-20T04:13:00;100069.13;;;11.45;55.10
40490;BME280;26196;52.302;10.572;2023-12-20T04:17:01;100110.81;;;11.74;54.72
40490;BME280;26196;52.302;10.572;2023-12-20T04:21:01;100100.47;;;11.70;55.32
40490;BME280;26196;52.302;10.572;2023-12-20T04:25:02;100064.50;;;11.51;55.21
40490;BME280;26196;52.302;10.572;2023-12-20T04:29:02;100032.09;;;11.30;55.25
40490;BME280;26196;52.302;10.572;2023-12-20T04:33:02;99999.47;;;11.15;55.40
40490;BME280;26196;52.302;10.572;2023-12-20T04:37:03;100101.44;;;11.67;55.56
40490;BME280;26196;52.302;10.572;2023-12-20T04:41:03;100073.19;;;11.52;55.44
40490;BME280;26196;52.302;10.572;2023-12-20T04:45:04;100083.34;;;11.61;54.95
40490;BME280;26196;52.302;10.572;2023-12-20T04:49:05;100091.25;;;11.59;55.72
40490;BME280;26196;52.302;10.572;2023-12-20T04:53:05;100028.63;;;11.30;55.15
40490;BME280;26196;52.302;10.572;2023-12-20T04:57:05;100098.66;;;11.72;55.84
40490;BME280;26196;52.302;10.572;2023-12-20T05:01:06;100073.00;;;11.58;55.26
40490;BME280;26196;52.302;10.572;2023-12-20T05:05:07;100088.22;;;11.70;54.94
40490;BME280;26196;52.302;10.572;2023-12-20T05:09:07;100091.59;;;11.74;55.48
40490;BME280;26196;52.302;10.572;2023-12-20T05:13:09;100045.16;;;11.54;55.68
40490;BME280;26196;52.302;10.572;2023-12-20T05:17:09;100059.69;;;11.63;55.41
40490;BME280;26196;52.302;10.572;2023-12-20T05:21:10;100090.75;;;11.73;55.52
40490;BME280;26196;52.302;10.572;2023-12-20T05:25:10;100025.88;;;11.33;55.57
40490;BME280;26196;52.302;10.572;2023-12-20T05:29:11;100072.63;;;11.67;55.33
40490;BME280;26196;52.302;10.572;2023-12-20T05:33:11;100019.84;;;11.31;55.32
40490;BME280;26196;52.302;10.572;2023-12-20T05:37:12;100085.69;;;11.69;55.36
40490;BME280;26196;52.302;10.572;2023-12-20T05:41:12;100064.88;;;11.64;55.52
40490;BME280;26196;52.302;10.572;2023-12-20T05:45:14;99996.56;;;11.23;54.94
40490;BME280;26196;52.302;10.572;2023-12-20T05:49:15;100078.03;;;11.63;55.03
40490;BME280;26196;52.302;10.572;2023-12-20T05:53:15;100072.78;;;11.63;55.64
40490;BME280;26196;52.302;10.572;2023-12-20T05:57:15;100042.50;;;11.55;55.27
40490;BME280;26196;52.302;10.572;2023-12-20T06:01:16;100056.75;;;11.70;55.59
40490;BME280;26196;52.302;10.572;2023-12-20T06:05:19;100047.19;;;11.69;54.85
40490;BME280;26196;52.302;10.572;2023-12-20T06:09:19;100003.78;;;11.40;54.48
40490;BME280;26196;52.302;10.572;2023-12-20T06:13:19;99946.03;;;10.98;55.56
40490;BME280;26196;52.302;10.572;2023-12-20T06:17:20;99996.34;;;11.29;55.13
40490;BME280;26196;52.302;10.572;2023-12-20T06:21:20;100024.56;;;11.45;55.17
40490;BME280;26196;52.302;10.572;2023-12-20T06:25:21;100012.06;;;11.29;54.68
40490;BME280;26196;52.302;10.572;2023-12-20T06:29:21;99996.56;;;11.23;54.77
40490;BME280;26196;52.302;10.572;2023-12-20T06:33:21;99993.16;;;11.21;55.04
40490;BME280;26196;52.302;10.572;2023-12-20T06:37:22;100062.63;;;11.55;55.01
40490;BME280;26196;52.302;10.572;2023-12-20T06:41:22;99993.94;;;11.23;55.17
40490;BME280;26196;52.302;10.572;2023-12-20T06:45:24;100064.75;;;11.67;55.01
40490;BME280;26196;52.302;10.572;2023-12-20T06:49:24;100054.75;;;11.55;55.32
40490;BME280;26196;52.302;10.572;2023-12-20T06:53:25;100065.72;;;11.65;55.28
40490;BME280;26196;52.302;10.572;2023-12-20T06:57:25;100077.19;;;11.62;55.15
40490;BME280;26196;52.302;10.572;2023-12-20T07:01:26;100041.59;;;11.56;55.34
40490;BME280;26196;52.302;10.572;2023-12-20T07:05:26;100059.88;;;11.58;55.01
40490;BME280;26196;52.302;10.572;2023-12-20T07:09:27;99982.78;;;11.18;54.80
40490;BME280;26196;52.302;10.572;2023-12-20T07:13:27;99964.84;;;11.07;55.23
40490;BME280;26196;52.302;10.572;2023-12-20T07:17:27;99997.44;;;11.24;54.85
40490;BME280;26196;52.302;10.572;2023-12-20T07:21:28;100062.56;;;11.56;54.77
40490;BME280;26196;52.302;10.572;2023-12-20T07:25:28;99953.91;;;10.98;55.31
40490;BME280;26196;52.302;10.572;2023-12-20T07:29:28;99960.66;;;11.03;55.39
40490;BME280;26196;52.302;10.572;2023-12-20T07:33:29;99975.78;;;11.19;55.18
40490;BME280;26196;52.302;10.572;2023-12-20T07:37:30;100060.66;;;11.60;55.30
40490;BME280;26196;52.302;10.572;2023-12-20T07:41:30;99992.28;;;11.21;55.09
40490;BME280;26196;52.302;10.572;2023-12-20T07:45:30;100053.59;;;11.62;55.14
40490;BME280;26196;52.302;10.572;2023-12-20T07:49:31;100004.78;;;11.14;55.08
40490;BME280;26196;52.302;10.572;2023-12-20T07:53:32;100072.19;;;11.56;55.41
40490;BME280;26196;52.302;10.572;2023-12-20T07:57:33;100000.91;;;11.24;55.42
40490;BME280;26196;52.302;10.572;2023-12-20T08:01:33;100024.97;;;11.34;55.28
40490;BME280;26196;52.302;10.572;2023-12-20T08:05:33;100044.19;;;11.56;55.32
40490;BME280;26196;52.302;10.572;2023-12-20T08:09:34;99999.47;;;11.15;55.31
40490;BME280;26196;52.302;10.572;2023-12-20T08:13:36;100048.16;;;11.45;55.27
40490;BME280;26196;52.302;10.572;2023-12-20T08:17:37;100002.16;;;11.14;55.13
40490;BME280;26196;52.302;10.572;2023-12-20T08:21:37;100025.16;;;11.29;55.27
40490;BME280;26196;52.302;10.572;2023-12-20T08:25:37;100062.91;;;11.47;55.00
40490;BME280;26196;52.302;10.572;2023-12-20T08:29:37;99993.75;;;11.06;55.34
40490;BME280;26196;52.302;10.572;2023-12-20T08:33:38;99984.09;;;11.06;55.24
40490;BME280;26196;52.302;10.572;2023-12-20T08:37:38;100046.16;;;11.28;55.35
40490;BME280;26196;52.302;10.572;2023-12-20T08:41:38;100047.97;;;11.26;55.37
40490;BME280;26196;52.302;10.572;2023-12-20T08:45:39;100044.06;;;11.37;55.82
40490;BME280;26196;52.302;10.572;2023-12-20T08:49:40;99979.84;;;11.04;55.39
40490;BME280;26196;52.302;10.572;2023-12-20T08:53:40;100042.25;;;11.39;55.74
40490;BME280;26196;52.302;10.572;2023-12-20T08:57:41;100010.00;;;11.37;55.58
40490;BME280;26196;52.302;10.572;2023-12-20T09:01:42;100020.88;;;11.50;55.68
40490;BME280;26196;52.302;10.572;2023-12-20T09:05:42;100032.06;;;11.54;55.79
40490;BME280;26196;52.302;10.572;2023-12-20T09:09:42;100018.06;;;11.55;55.67
40490;BME280;26196;52.302;10.572;2023-12-20T09:13:43;100011.19;;;11.52;55.94
40490;BME280;26196;52.302;10.572;2023-12-20T09:17:44;99942.72;;;11.16;56.25
40490;BME280;26196;52.302;10.572;2023-12-20T09:21:44;99961.19;;;11.35;55.99
40490;BME280;26196;52.302;10.572;2023-12-20T09:25:45;99930.59;;;11.13;56.00
40490;BME280;26196;52.302;10.572;2023-12-20T09:29:45;99927.34;;;11.07;55.95
40490;BME280;26196;52.302;10.572;2023-12-20T09:33:45;99991.84;;;11.55;56.24
40490;BME280;26196;52.302;10.572;2023-12-20T09:37:46;99939.59;;;11.28;55.97
40490;BME280;26196;52.302;10.572;2023-12-20T09:42:04;99980.44;;;11.56;56.30
40490;BME280;26196;52.302;10.572;2023-12-20T09:46:06;99963.19;;;11.50;56.43
40490;BME280;26196;52.302;10.572;2023-12-20T09:50:07;99959.72;;;11.50;56.20
40490;BME280;26196;52.302;10.572;2023-12-20T09:54:09;99900.19;;;11.09;56.01
40490;BME280;26196;52.302;10.572;2023-12-20T09:58:09;99901.69;;;11.15;56.29
40490;BME280;26196;52.302;10.572;2023-12-20T10:02:13;99912.84;;;11.20;56.08
40490;BME280;26196;52.302;10.572;2023-12-20T10:06:16;99971.66;;;11.57;56.14
40490;BME280;26196;52.302;10.572;2023-12-20T10:10:17;99937.97;;;11.48;56.40
40490;BME280;26196;52.302;10.572;2023-12-20T10:14:17;99899.63;;;11.23;56.39
40490;BME280;26196;52.302;10.572;2023-12-20T10:18:18;99913.03;;;11.37;56.15
40490;BME280;26196;52.302;10.572;2023-12-20T10:22:21;99921.31;;;11.49;56.69
40490;BME280;26196;52.302;10.572;2023-12-20T10:26:24;99919.38;;;11.54;56.54
40490;BME280;26196;52.302;10.572;2023-12-20T10:30:24;99908.00;;;11.55;56.69
40490;BME280;26196;52.302;10.572;2023-12-20T10:34:27;99897.56;;;11.53;56.40
40490;BME280;26196;52.302;10.572;2023-12-20T10:38:27;99899.47;;;11.50;56.93
40490;BME280;26196;52.302;10.572;2023-12-20T10:42:29;99887.25;;;11.49;56.77
40490;BME280;26196;52.302;10.572;2023-12-20T10:46:31;99811.97;;;11.10;56.82
40490;BME280;26196;52.302;10.572;2023-12-20T10:50:36;99835.91;;;11.23;56.52
40490;BME280;26196;52.302;10.572;2023-12-20T10:54:42;99800.25;;;10.98;56.65
40490;BME280;26196;52.302;10.572;2023-12-20T10:58:42;99840.13;;;11.27;57.12
40490;BME280;26196;52.302;10.572;2023-12-20T11:02:45;99860.91;;;11.52;56.89
40490;BME280;26196;52.302;10.572;2023-12-20T11:06:50;99785.19;;;11.03;57.00
40490;BME280;26196;52.302;10.572;2023-12-20T11:10:59;99797.84;;;11.14;56.93
40490;BME280;26196;52.302;10.572;2023-12-20T11:15:02;99741.66;;;10.79;56.82
40490;BME280;26196;52.302;10.572;2023-12-20T11:19:05;99856.97;;;11.42;56.88
40490;BME280;26196;52.302;10.572;2023-12-20T11:23:07;99839.53;;;11.41;57.10
40490;BME280;26196;52.302;10.572;2023-12-20T11:27:08;99841.19;;;11.43;57.04
40490;BME280;26196;52.302;10.572;2023-12-20T11:31:08;99754.31;;;10.89;57.34
40490;BME280;26196;52.302;10.572;2023-12-20T11:39:11;99845.94;;;11.33;57.52
40490;BME280;26196;52.302;10.572;2023-12-20T11:43:29;99838.88;;;11.35;57.49
40490;BME280;26196;52.302;10.572;2023-12-20T11:47:30;99822.50;;;11.30;57.18
40490;BME280;26196;52.302;10.572;2023-12-20T11:51:31;99838.16;;;11.32;57.60
40490;BME280;26196;52.302;10.572;2023-12-20T11:55:33;99820.81;;;11.29;57.46
40490;BME280;26196;52.302;10.572;2023-12-20T11:59:33;99746.97;;;10.77;57.37
40490;BME280;26196;52.302;10.572;2023-12-20T12:03:34;99810.88;;;11.15;57.59
40490;BME280;26196;52.302;10.572;2023-12-20T12:07:35;99771.31;;;10.79;57.95
40490;BME280;26196;52.302;10.572;2023-12-20T12:11:35;99759.63;;;10.88;57.90
40490;BME280;26196;52.302;10.572;2023-12-20T12:15:36;99812.53;;;10.96;57.76
40490;BME280;26196;52.302;10.572;2023-12-20T12:19:37;99782.16;;;10.70;58.12
40490;BME280;26196;52.302;10.572;2023-12-20T12:23:37;99847.19;;;11.03;58.34
40490;BME280;26196;52.302;10.572;2023-12-20T12:27:40;99831.78;;;10.95;58.14
40490;BME280;26196;52.302;10.572;2023-12-20T12:31:40;99762.44;;;10.61;58.29
40490;BME280;26196;52.302;10.572;2023-12-20T12:35:41;99803.47;;;10.83;58.48
40490;BME280;26196;52.302;10.572;2023-12-20T12:39:42;99837.63;;;11.02;58.22
40490;BME280;26196;52.302;10.572;2023-12-20T12:43:42;99832.38;;;11.02;58.25
40490;BME280;26196;52.302;10.572;2023-12-20T12:47:43;99800.78;;;10.84;58.18
40490;BME280;26196;52.302;10.572;2023-12-20T12:51:43;99849.56;;;11.09;58.22
40490;BME280;26196;52.302;10.572;2023-12-20T12:55:44;99791.59;;;10.74;58.31
40490;BME280;26196;52.302;10.572;2023-12-20T12:59:45;99836.09;;;10.96;58.23
40490;BME280;26196;52.302;10.572;2023-12-20T13:03:46;99776.91;;;10.70;58.33
40490;BME280;26196;52.302;10.572;2023-12-20T13:07:47;99835.00;;;11.02;58.21
40490;BME280;26196;52.302;10.572;2023-12-20T13:11:47;99769.31;;;10.64;58.00
40490;BME280;26196;52.302;10.572;2023-12-20T13:15:48;99854.13;;;11.04;58.37
40490;BME280;26196;52.302;10.572;2023-12-20T13:19:52;99855.69;;;11.08;58.49
40490;BME280;26196;52.302;10.572;2023-12-20T13:23:53;99802.84;;;10.76;58.07
40490;BME280;26196;52.302;10.572;2023-12-20T13:27:54;99851.44;;;11.05;58.19
40490;BME280;26196;52.302;10.572;2023-12-20T13:31:55;99848.94;;;11.02;58.23
40490;BME280;26196;52.302;10.572;2023-12-20T13:35:55;99801.41;;;10.69;58.04
40490;BME280;26196;52.302;10.572;2023-12-20T13:39:56;99843.84;;;10.99;57.95
40490;BME280;26196;52.302;10.572;2023-12-20T13:43:57;99830.31;;;10.88;58.21
40490;BME280;26196;52.302;10.572;2023-12-20T13:47:58;99803.94;;;10.70;57.95
40490;BME280;26196;52.302;10.572;2023-12-20T13:51:59;99814.25;;;10.75;57.87
40490;BME280;26196;52.302;10.572;2023-12-20T13:55:59;99868.88;;;11.06;58.02
40490;BME280;26196;52.302;10.572;2023-12-20T14:00:00;99805.09;;;10.63;58.25
40490;BME280;26196;52.302;10.572;2023-12-20T14:04:00;99801.75;;;10.60;57.67
40490;BME280;26196;52.302;10.572;2023-12-20T14:08:01;99882.94;;;11.04;57.74
40490;BME280;26196;52.302;10.572;2023-12-20T14:12:02;99861.66;;;10.89;57.63
40490;BME280;26196;52.302;10.572;2023-12-20T14:16:02;99877.63;;;11.05;57.52
40490;BME280;26196;52.302;10.572;2023-12-20T14:20:05;99866.44;;;11.02;57.38
40490;BME280;26196;52.302;10.572;2023-12-20T14:24:07;99863.63;;;11.06;57.23
40490;BME280;26196;52.302;10.572;2023-12-20T14:28:07;99813.81;;;10.64;57.29
40490;BME280;26196;52.302;10.572;2023-12-20T14:32:08;99876.09;;;11.00;57.11
40490;BME280;26196;52.302;10.572;2023-12-20T14:36:08;99820.88;;;10.62;56.85
40490;BME280;26196;52.302;10.572;2023-12-20T14:40:09;99800.25;;;10.52;57.09
40490;BME280;26196;52.302;10.572;2023-12-20T14:44:15;99865.84;;;10.95;56.79
40490;BME280;26196;52.302;10.572;2023-12-20T14:48:15;99860.78;;;10.90;56.71
40490;BME280;26196;52.302;10.572;2023-12-20T14:52:17;99885.00;;;10.95;56.82
40490;BME280;26196;52.302;10.572;2023-12-20T14:56:18;99792.66;;;10.46;56.94
40490;BME280;26196;52.302;10.572;2023-12-20T15:00:20;99805.38;;;10.56;57.04
40490;BME280;26196;52.302;10.572;2023-12-20T15:04:20;99867.94;;;10.85;56.53
40490;BME280;26196;52.302;10.572;2023-12-20T15:08:28;99891.13;;;10.94;56.51
40490;BME280;26196;52.302;10.572;2023-12-20T15:12:28;99847.84;;;10.64;57.02
40490;BME280;26196;52.302;10.572;2023-12-20T15:16:29;99898.31;;;10.89;56.50
40490;BME280;26196;52.302;10.572;2023-12-20T15:20:29;99880.22;;;10.83;56.82
40490;BME280;26196;52.302;10.572;2023-12-20T15:24:30;99901.53;;;10.98;56.81
40490;BME280;26196;52.302;10.572;2023-12-20T15:28:38;99828.59;;;10.65;56.69
40490;BME280;26196;52.302;10.572;2023-12-20T15:32:38;99819.72;;;10.69;56.53
40490;BME280;26196;52.302;10.572;2023-12-20T15:36:40;99825.69;;;10.72;56.72
40490;BME280;26196;52.302;10.572;2023-12-20T15:40:42;99892.38;;;11.08;56.89
40490;BME280;26196;52.302;10.572;2023-12-20T15:44:42;99821.38;;;10.71;56.76
40490;BME280;26196;52.302;10.572;2023-12-20T15:48:42;99883.97;;;11.00;57.13
40490;BME280;26196;52.302;10.572;2023-12-20T15:52:43;99893.28;;;11.07;56.70
40490;BME280;26196;52.302;10.572;2023-12-20T15:56:43;99830.19;;;10.69;56.82
40490;BME280;26196;52.302;10.572;2023-12-20T16:00:45;99875.50;;;10.93;57.15
40490;BME280;26196;52.302;10.572;2023-12-20T16:04:45;99902.13;;;11.04;56.98
40490;BME280;26196;52.302;10.572;2023-12-20T16:08:46;99903.47;;;11.14;56.93
40490;BME280;26196;52.302;10.572;2023-12-20T16:12:46;99913.22;;;11.11;56.84
40490;BME280;26196;52.302;10.572;2023-12-20T16:16:47;99908.97;;;11.08;56.61
40490;BME280;26196;52.302;10.572;2023-12-20T16:20:47;99897.25;;;11.17;56.90
40490;BME280;26196;52.302;10.572;2023-12-20T16:24:48;99904.94;;;11.22;56.51
40490;BME280;26196;52.302;10.572;2023-12-20T16:28:48;99897.72;;;11.05;56.44
40490;BME280;26196;52.302;10.572;2023-12-20T16:32:48;99865.06;;;10.69;56.22
40490;BME280;26196;52.302;10.572;2023-12-20T16:36:53;99870.59;;;10.62;56.06
40490;BME280;26196;52.302;10.572;2023-12-20T16:40:54;99862.94;;;10.56;56.41
40490;BME280;26196;52.302;10.572;2023-12-20T16:44:55;99907.25;;;10.84;56.36
40490;BME280;26196;52.302;10.572;2023-12-20T16:48:55;99914.94;;;10.88;55.81
40490;BME280;26196;52.302;10.572;2023-12-20T16:52:55;99895.50;;;10.72;56.08
40490;BME280;26196;52.302;10.572;2023-12-20T16:56:56;99917.81;;;10.82;56.28
40490;BME280;26196;52.302;10.572;2023-12-20T17:00:56;99910.97;;;10.78;56.38
40490;BME280;26196;52.302;10.572;2023-12-20T17:04:57;99923.72;;;10.87;56.19
40490;BME280;26196;52.302;10.572;2023-12-20T17:08:57;99859.66;;;10.50;56.09
40490;BME280;26196;52.302;10.572;2023-12-20T17:12:57;99874.97;;;10.61;55.75
40490;BME280;26196;52.302;10.572;2023-12-20T17:16:58;99863.06;;;10.52;56.43
40490;BME280;26196;52.302;10.572;2023-12-20T17:20:58;99905.84;;;10.75;56.34
40490;BME280;26196;52.302;10.572;2023-12-20T17:24:58;99925.09;;;10.98;57.02
40490;BME280;26196;52.302;10.572;2023-12-20T17:28:59;99914.88;;;11.13;57.30
40490;BME280;26196;52.302;10.572;2023-12-20T17:32:59;99888.97;;;11.06;57.97
40490;BME280;26196;52.302;10.572;2023-12-20T17:36:59;99912.03;;;11.18;57.67
40490;BME280;26196;52.302;10.572;2023-12-20T17:41:00;99845.41;;;10.81;57.83
40490;BME280;26196;52.302;10.572;2023-12-20T17:45:00;99842.78;;;10.81;59.19
40490;BME280;26196;52.302;10.572;2023-12-20T17:49:01;99884.34;;;11.12;59.07
40490;BME280;26196;52.302;10.572;2023-12-20T17:53:02;99872.34;;;11.07;59.40
40490;BME280;26196;52.302;10.572;2023-12-20T17:57:02;99836.56;;;10.84;59.32
40490;BME280;26196;52.302;10.572;2023-12-20T18:01:03;99884.41;;;11.11;59.34
40490;BME280;26196;52.302;10.572;2023-12-20T18:05:04;99870.56;;;11.07;59.70
40490;BME280;26196;52.302;10.572;2023-12-20T18:09:04;99859.50;;;11.01;59.80
40490;BME280;26196;52.302;10.572;2023-12-20T18:13:05;99804.91;;;10.68;59.83
40490;BME280;26196;52.302;10.572;2023-12-20T18:17:05;99874.78;;;11.11;59.79
40490;BME280;26196;52.302;10.572;2023-12-20T18:21:06;99878.50;;;11.06;59.31
40490;BME280;26196;52.302;10.572;2023-12-20T18:25:07;99813.44;;;10.73;59.76
40490;BME280;26196;52.302;10.572;2023-12-20T18:29:07;99850.00;;;10.98;59.46
40490;BME280;26196;52.302;10.572;2023-12-20T18:33:08;99799.69;;;10.68;59.53
40490;BME280;26196;52.302;10.572;2023-12-20T18:37:08;99791.41;;;10.57;59.31
40490;BME280;26196;52.302;10.572;2023-12-20T18:41:11;99866.31;;;11.05;59.70
40490;BME280;26196;52.302;10.572;2023-12-20T18:45:14;99864.59;;;11.04;58.93
40490;BME280;26196;52.302;10.572;2023-12-20T18:49:15;99855.94;;;11.02;59.69
40490;BME280;26196;52.302;10.572;2023-12-20T18:53:16;99823.56;;;10.82;59.49
40490;BME280;26196;52.302;10.572;2023-12-20T18:57:17;99842.94;;;11.00;59.42
40490;BME280;26196;52.302;10.572;2023-12-20T19:01:18;99836.34;;;10.90;60.10
40490;BME280;26196;52.302;10.572;2023-12-20T19:05:18;99775.22;;;10.69;59.97
40490;BME280;26196;52.302;10.572;2023-12-20T19:09:18;99768.16;;;10.71;59.92
40490;BME280;26196;52.302;10.572;2023-12-20T19:13:19;99771.22;;;10.82;59.75
40490;BME280;26196;52.302;10.572;2023-12-20T19:17:19;99783.56;;;11.01;60.39
40490;BME280;26196;52.302;10.572;2023-12-20T19:21:20;99761.69;;;11.02;59.55
40490;BME280;26196;52.302;10.572;2023-12-20T19:25:21;99785.66;;;11.13;61.26
40490;BME280;26196;52.302;10.572;2023-12-20T19:29:21;99710.47;;;10.74;61.19
40490;BME280;26196;52.302;10.572;2023-12-20T19:33:22;99706.44;;;10.65;61.01
40490;BME280;26196;52.302;10.572;2023-12-20T19:37:22;99704.44;;;10.72;61.03
40490;BME280;26196;52.302;10.572;2023-12-20T19:41:23;99760.53;;;11.09;61.32
40490;BME280;26196;52.302;10.572;2023-12-20T19:45:23;99691.34;;;10.72;61.18
40490;BME280;26196;52.302;10.572;2023-12-20T19:49:24;99691.22;;;10.75;60.86
40490;BME280;26196;52.302;10.572;2023-12-20T19:53:24;99735.88;;;11.13;61.21
40490;BME280;26196;52.302;10.572;2023-12-20T19:57:26;99713.38;;;11.09;61.29
40490;BME280;26196;52.302;10.572;2023-12-20T20:01:26;99681.47;;;10.99;60.93
40490;BME280;26196;52.302;10.572;2023-12-20T20:05:27;99670.22;;;10.97;61.45
40490;BME280;26196;52.302;10.572;2023-12-20T20:09:27;99655.47;;;10.94;61.29
40490;BME280;26196;52.302;10.572;2023-12-20T20:13:28;99665.44;;;11.07;61.17
40490;BME280;26196;52.302;10.572;2023-12-20T20:17:28;99596.28;;;10.71;61.02
40490;BME280;26196;52.302;10.572;2023-12-20T20:21:28;99647.91;;;11.09;60.71
40490;BME280;26196;52.302;10.572;2023-12-20T20:25:29;99620.09;;;11.06;60.67
40490;BME280;26196;52.302;10.572;2023-12-20T20:29:29;99592.78;;;10.91;60.94
40490;BME280;26196;52.302;10.572;2023-12-20T20:33:29;99582.63;;;11.04;60.94
40490;BME280;26196;52.302;10.572;2023-12-20T20:37:30;99557.84;;;10.92;60.96
40490;BME280;26196;52.302;10.572;2023-12-20T20:41:30;99530.44;;;10.81;61.47
40490;BME280;26196;52.302;10.572;2023-12-20T20:45:31;99516.63;;;10.77;61.54
40490;BME280;26196;52.302;10.572;2023-12-20T20:49:31;99569.78;;;11.19;61.20
40490;BME280;26196;52.302;10.572;2023-12-20T20:53:32;99542.16;;;11.11;61.29